sensor_id;sensor_type;location;lat;lon;timestamp;temperature;humidity
14359;DHT22;7263;49.418;11.064;2023-04-12T00:00:05;3.00;99.90
14359;DHT22;7263;49.418;11.064;2023-04-12T00:02:43;3.70;99.90
14359;DHT22;7263;49.418;11.064;2023-04-12T00:05:10;3.70;99.90
14359;DHT22;7263;49.418;11.064;2023-04-12T00:07:38;3.70;99.90
14359;DHT22;7263;49.418;11.064;2023-04-12T00:10:09;3.70;99.90
14359;DHT22;7263;49.418;11.064;2023-04-12T00:12:43;3.80;99.90
14359;DHT22;7263;49.418;11.064;2023-04-12T00:15:26;3.80;99.90
14359;DHT22;7263;49.418;11.064;2023-04-12T00:17:53;3.90;99.90
14359;DHT22;7263;49.418;11.064;2023-04-12T00:20:20;3.90;99.90
14359;DHT22;7263;49.418;11.064;2023-04-12T00:22:49;3.90;99.90
14359;DHT22;7263;49.418;11.064;2023-04-12T00:25:25;3.90;99.90
14359;DHT22;7263;49.418;11.064;2023-04-12T00:27:52;3.90;99.90
14359;DHT22;7263;49.418;11.064;2023-04-12T00:30:21;3.90;99.90
14359;DHT22;7263;49.418;11.064;2023-04-12T00:32:48;3.90;99.90
14359;DHT22;7263;49.418;11.064;2023-04-12T00:35:20;3.90;99.90
14359;DHT22;7263;49.418;11.064;2023-04-12T00:37:47;4.00;99.90
14359;DHT22;7263;49.418;11.064;2023-04-12T00:40:14;4.00;99.90
14359;DHT22;7263;49.418;11.064;2023-04-12T00:42:48;4.00;99.90
14359;DHT22;7263;49.418;11.064;2023-04-12T00:45:15;4.00;99.90
14359;DHT22;7263;49.418;11.064;2023-04-12T00:47:47;3.90;99.90
14359;DHT22;7263;49.418;11.064;2023-04-12T00:50:14;4.00;99.90
14359;DHT22;7263;49.418;11.064;2023-04-12T00:52:43;3.90;99.90
14359;DHT22;7263;49.418;11.064;2023-04-12T00:55:16;4.00;99.90
14359;DHT22;7263;49.418;11.064;2023-04-12T00:57:43;4.00;99.90
14359;DHT22;7263;49.418;11.064;2023-04-12T01:00:15;4.00;99.90
14359;DHT22;7263;49.418;11.064;2023-04-12T01:02:44;4.00;99.90
14359;DHT22;7263;49.418;11.064;2023-04-12T01:05:21;4.10;99.90
14359;DHT22;7263;49.418;11.064;2023-04-12T01:08:20;4.10;99.90
14359;DHT22;7263;49.418;11.064;2023-04-12T01:10:58;4.20;99.90
14359;DHT22;7263;49.418;11.064;2023-04-12T01:13:38;4.30;99.90
14359;DHT22;7263;49.418;11.064;2023-04-12T01:16:13;4.30;99.90
14359;DHT22;7263;49.418;11.064;2023-04-12T01:18:58;4.30;99.90
14359;DHT22;7263;49.418;11.064;2023-04-12T01:21:39;4.40;99.90
14359;DHT22;7263;49.418;11.064;2023-04-12T01:24:24;4.40;99.90
14359;DHT22;7263;49.418;11.064;2023-04-12T01:26:54;4.40;99.90
14359;DHT22;7263;49.418;11.064;2023-04-12T01:29:32;4.40;99.90
14359;DHT22;7263;49.418;11.064;2023-04-12T01:32:00;4.40;99.90
14359;DHT22;7263;49.418;11.064;2023-04-12T01:34:33;4.40;99.90
14359;DHT22;7263;49.418;11.064;2023-04-12T01:37:04;4.40;99.90
14359;DHT22;7263;49.418;11.064;2023-04-12T01:39:33;4.40;99.90
14359;DHT22;7263;49.418;11.064;2023-04-12T01:42:07;4.40;99.90
14359;DHT22;7263;49.418;11.064;2023-04-12T01:44:39;4.40;99.90
14359;DHT22;7263;49.418;11.064;2023-04-12T01:47:09;4.50;99.90
14359;DHT22;7263;49.418;11.064;2023-04-12T01:49:48;4.50;99.90
14359;DHT22;7263;49.418;11.064;2023-04-12T01:52:22;4.50;99.90
14359;DHT22;7263;49.418;11.064;2023-04-12T01:54:53;4.50;99.90
14359;DHT22;7263;49.418;11.064;2023-04-12T01:57:23;4.40;99.90
14359;DHT22;7263;49.418;11.064;2023-04-12T01:59:55;4.60;99.90
14359;DHT22;7263;49.418;11.064;2023-04-12T02:02:24;4.60;99.90
14359;DHT22;7263;49.418;11.064;2023-04-12T02:04:52;4.70;99.90
14359;DHT22;7263;49.418;11.064;2023-04-12T02:07:22;4.70;99.90
14359;DHT22;7263;49.418;11.064;2023-04-12T02:09:49;4.70;99.90
14359;DHT22;7263;49.418;11.064;2023-04-12T02:12:18;4.70;99.90
14359;DHT22;7263;49.418;11.064;2023-04-12T02:14:50;4.70;99.90
14359;DHT22;7263;49.418;11.064;2023-04-12T02:17:21;4.70;99.90
14359;DHT22;7263;49.418;11.064;2023-04-12T02:19:50;4.60;99.90
14359;DHT22;7263;49.418;11.064;2023-04-12T02:22:17;4.60;99.90
14359;DHT22;7263;49.418;11.064;2023-04-12T02:24:47;4.60;99.90
14359;DHT22;7263;49.418;11.064;2023-04-12T02:27:13;2.00;99.90
14359;DHT22;7263;49.418;11.064;2023-04-12T02:29:43;4.60;99.90
14359;DHT22;7263;49.418;11.064;2023-04-12T02:32:12;4.60;99.90
14359;DHT22;7263;49.418;11.064;2023-04-12T02:34:46;4.60;99.90
14359;DHT22;7263;49.418;11.064;2023-04-12T02:37:15;4.60;99.90
14359;DHT22;7263;49.418;11.064;2023-04-12T02:39:44;4.70;99.90
14359;DHT22;7263;49.418;11.064;2023-04-12T02:42:11;4.70;99.90
14359;DHT22;7263;49.418;11.064;2023-04-12T02:44:48;4.70;99.90
14359;DHT22;7263;49.418;11.064;2023-04-12T02:47:32;4.70;99.90
14359;DHT22;7263;49.418;11.064;2023-04-12T02:50:03;4.80;99.90
14359;DHT22;7263;49.418;11.064;2023-04-12T02:52:40;4.80;99.90
14359;DHT22;7263;49.418;11.064;2023-04-12T02:55:08;4.80;99.90
14359;DHT22;7263;49.418;11.064;2023-04-12T02:57:35;4.90;99.90
14359;DHT22;7263;49.418;11.064;2023-04-12T03:00:10;4.90;99.90
14359;DHT22;7263;49.418;11.064;2023-04-12T03:02:43;4.90;99.90
14359;DHT22;7263;49.418;11.064;2023-04-12T03:05:14;5.10;99.90
14359;DHT22;7263;49.418;11.064;2023-04-12T03:07:42;5.10;99.90
14359;DHT22;7263;49.418;11.064;2023-04-12T03:10:14;5.10;99.90
14359;DHT22;7263;49.418;11.064;2023-04-12T03:12:41;5.10;99.90
14359;DHT22;7263;49.418;11.064;2023-04-12T03:15:08;5.20;99.90
14359;DHT22;7263;49.418;11.064;2023-04-12T03:17:35;5.20;99.90
14359;DHT22;7263;49.418;11.064;2023-04-12T03:20:06;5.20;99.90
14359;DHT22;7263;49.418;11.064;2023-04-12T03:22:38;5.20;99.90
14359;DHT22;7263;49.418;11.064;2023-04-12T03:25:08;5.20;99.90
14359;DHT22;7263;49.418;11.064;2023-04-12T03:27:43;5.20;99.90
14359;DHT22;7263;49.418;11.064;2023-04-12T03:30:14;5.20;99.90
14359;DHT22;7263;49.418;11.064;2023-04-12T03:32:41;5.20;99.90
14359;DHT22;7263;49.418;11.064;2023-04-12T03:35:13;5.20;99.90
14359;DHT22;7263;49.418;11.064;2023-04-12T03:37:42;5.20;99.90
14359;DHT22;7263;49.418;11.064;2023-04-12T03:40:09;5.20;99.90
14359;DHT22;7263;49.418;11.064;2023-04-12T03:42:39;5.10;99.90
14359;DHT22;7263;49.418;11.064;2023-04-12T03:45:06;5.10;99.90
14359;DHT22;7263;49.418;11.064;2023-04-12T03:47:33;5.10;99.90
14359;DHT22;7263;49.418;11.064;2023-04-12T03:50:14;5.10;99.90
14359;DHT22;7263;49.418;11.064;2023-04-12T03:52:43;5.10;99.90
14359;DHT22;7263;49.418;11.064;2023-04-12T03:55:10;5.10;99.90
14359;DHT22;7263;49.418;11.064;2023-04-12T03:57:44;5.10;99.90
14359;DHT22;7263;49.418;11.064;2023-04-12T04:00:16;5.10;99.90
14359;DHT22;7263;49.418;11.064;2023-04-12T04:02:46;5.10;99.90
14359;DHT22;7263;49.418;11.064;2023-04-12T04:05:14;5.20;99.90
14359;DHT22;7263;49.418;11.064;2023-04-12T04:07:43;5.20;99.90
14359;DHT22;7263;49.418;11.064;2023-04-12T04:10:13;5.20;99.90
14359;DHT22;7263;49.418;11.064;2023-04-12T04:12:40;5.20;99.90
14359;DHT22;7263;49.418;11.064;2023-04-12T04:15:10;5.30;99.90
14359;DHT22;7263;49.418;11.064;2023-04-12T04:17:39;5.30;99.90
14359;DHT22;7263;49.418;11.064;2023-04-12T04:20:08;5.30;99.90
14359;DHT22;7263;49.418;11.064;2023-04-12T04:22:46;5.30;99.90
14359;DHT22;7263;49.418;11.064;2023-04-12T04:25:13;5.30;99.90
14359;DHT22;7263;49.418;11.064;2023-04-12T04:27:43;5.30;99.90
14359;DHT22;7263;49.418;11.064;2023-04-12T04:30:11;5.40;99.90
14359;DHT22;7263;49.418;11.064;2023-04-12T04:32:39;5.40;99.90
14359;DHT22;7263;49.418;11.064;2023-04-12T04:35:07;5.50;99.90
14359;DHT22;7263;49.418;11.064;2023-04-12T04:37:43;5.50;99.90
14359;DHT22;7263;49.418;11.064;2023-04-12T04:40:13;5.60;99.90
14359;DHT22;7263;49.418;11.064;2023-04-12T04:42:42;5.60;99.90
14359;DHT22;7263;49.418;11.064;2023-04-12T04:45:11;5.60;99.90
14359;DHT22;7263;49.418;11.064;2023-04-12T04:47:43;5.60;99.90
14359;DHT22;7263;49.418;11.064;2023-04-12T04:50:12;5.70;99.90
14359;DHT22;7263;49.418;11.064;2023-04-12T04:52:38;5.70;99.90
14359;DHT22;7263;49.418;11.064;2023-04-12T04:55:18;5.80;99.90
14359;DHT22;7263;49.418;11.064;2023-04-12T04:57:46;5.80;99.90
14359;DHT22;7263;49.418;11.064;2023-04-12T05:00:16;5.80;99.90
14359;DHT22;7263;49.418;11.064;2023-04-12T05:02:45;5.90;99.90
14359;DHT22;7263;49.418;11.064;2023-04-12T05:05:23;5.90;99.90
14359;DHT22;7263;49.418;11.064;2023-04-12T05:07:50;5.90;99.90
14359;DHT22;7263;49.418;11.064;2023-04-12T05:10:18;5.90;99.90
14359;DHT22;7263;49.418;11.064;2023-04-12T05:12:47;5.90;99.90
14359;DHT22;7263;49.418;11.064;2023-04-12T05:15:17;5.90;99.90
14359;DHT22;7263;49.418;11.064;2023-04-12T05:17:44;5.90;99.90
14359;DHT22;7263;49.418;11.064;2023-04-12T05:20:17;5.90;99.90
14359;DHT22;7263;49.418;11.064;2023-04-12T05:22:46;6.00;99.90
14359;DHT22;7263;49.418;11.064;2023-04-12T05:25:13;6.00;99.90
14359;DHT22;7263;49.418;11.064;2023-04-12T05:27:41;6.00;99.90
14359;DHT22;7263;49.418;11.064;2023-04-12T05:30:22;6.00;99.90
14359;DHT22;7263;49.418;11.064;2023-04-12T05:32:55;6.00;99.90
14359;DHT22;7263;49.418;11.064;2023-04-12T05:35:21;6.10;99.90
14359;DHT22;7263;49.418;11.064;2023-04-12T05:37:53;6.10;99.90
14359;DHT22;7263;49.418;11.064;2023-04-12T05:40:19;6.20;99.90
14359;DHT22;7263;49.418;11.064;2023-04-12T05:42:52;6.20;99.90
14359;DHT22;7263;49.418;11.064;2023-04-12T05:45:22;6.20;99.90
14359;DHT22;7263;49.418;11.064;2023-04-12T05:47:51;6.20;99.90
14359;DHT22;7263;49.418;11.064;2023-04-12T05:50:18;6.30;99.90
14359;DHT22;7263;49.418;11.064;2023-04-12T05:52:50;6.30;99.90
14359;DHT22;7263;49.418;11.064;2023-04-12T05:55:31;6.40;99.90
14359;DHT22;7263;49.418;11.064;2023-04-12T05:58:00;6.40;99.90
14359;DHT22;7263;49.418;11.064;2023-04-12T06:00:35;6.40;99.90
14359;DHT22;7263;49.418;11.064;2023-04-12T06:03:05;6.40;99.90
14359;DHT22;7263;49.418;11.064;2023-04-12T06:05:36;6.40;99.90
14359;DHT22;7263;49.418;11.064;2023-04-12T06:08:06;6.40;99.90
14359;DHT22;7263;49.418;11.064;2023-04-12T06:10:37;6.40;99.90
14359;DHT22;7263;49.418;11.064;2023-04-12T06:13:14;6.40;99.90
14359;DHT22;7263;49.418;11.064;2023-04-12T06:15:43;6.30;99.90
14359;DHT22;7263;49.418;11.064;2023-04-12T06:18:10;6.40;99.90
14359;DHT22;7263;49.418;11.064;2023-04-12T06:20:38;6.20;99.90
14359;DHT22;7263;49.418;11.064;2023-04-12T06:23:08;6.20;99.90
14359;DHT22;7263;49.418;11.064;2023-04-12T06:25:34;6.20;99.90
14359;DHT22;7263;49.418;11.064;2023-04-12T06:28:01;6.20;99.90
14359;DHT22;7263;49.418;11.064;2023-04-12T06:30:32;6.10;99.90
14359;DHT22;7263;49.418;11.064;2023-04-12T06:33:01;6.20;99.90
14359;DHT22;7263;49.418;11.064;2023-04-12T06:35:39;6.20;99.90
14359;DHT22;7263;49.418;11.064;2023-04-12T06:38:11;6.20;99.90
14359;DHT22;7263;49.418;11.064;2023-04-12T06:40:40;6.30;99.90
14359;DHT22;7263;49.418;11.064;2023-04-12T06:43:07;6.30;99.90
14359;DHT22;7263;49.418;11.064;2023-04-12T06:45:35;6.30;99.90
14359;DHT22;7263;49.418;11.064;2023-04-12T06:48:11;6.30;99.90
14359;DHT22;7263;49.418;11.064;2023-04-12T06:50:38;6.30;99.90
14359;DHT22;7263;49.418;11.064;2023-04-12T06:53:08;6.30;99.90
14359;DHT22;7263;49.418;11.064;2023-04-12T06:55:38;6.40;99.90
14359;DHT22;7263;49.418;11.064;2023-04-12T06:58:04;6.40;99.90
14359;DHT22;7263;49.418;11.064;2023-04-12T07:00:35;6.40;99.90
14359;DHT22;7263;49.418;11.064;2023-04-12T07:03:05;6.40;99.90
14359;DHT22;7263;49.418;11.064;2023-04-12T07:05:32;6.50;99.90
14359;DHT22;7263;49.418;11.064;2023-04-12T07:08:06;6.50;99.90
14359;DHT22;7263;49.418;11.064;2023-04-12T07:10:37;6.50;99.90
14359;DHT22;7263;49.418;11.064;2023-04-12T07:13:07;6.50;99.90
14359;DHT22;7263;49.418;11.064;2023-04-12T07:15:37;6.40;99.90
14359;DHT22;7263;49.418;11.064;2023-04-12T07:18:07;6.50;99.90
14359;DHT22;7263;49.418;11.064;2023-04-12T07:20:36;6.40;99.90
14359;DHT22;7263;49.418;11.064;2023-04-12T07:23:05;6.40;99.90
14359;DHT22;7263;49.418;11.064;2023-04-12T07:25:32;6.50;99.90
14359;DHT22;7263;49.418;11.064;2023-04-12T07:28:04;6.50;99.90
14359;DHT22;7263;49.418;11.064;2023-04-12T07:30:31;6.40;99.90
14359;DHT22;7263;49.418;11.064;2023-04-12T07:33:18;6.50;99.90
14359;DHT22;7263;49.418;11.064;2023-04-12T07:35:45;6.60;99.90
14359;DHT22;7263;49.418;11.064;2023-04-12T07:38:11;7.00;99.90
14359;DHT22;7263;49.418;11.064;2023-04-12T07:40:38;6.70;99.90
14359;DHT22;7263;49.418;11.064;2023-04-12T07:43:10;6.70;99.90
14359;DHT22;7263;49.418;11.064;2023-04-12T07:45:43;6.70;99.90
14359;DHT22;7263;49.418;11.064;2023-04-12T07:48:10;6.80;99.90
14359;DHT22;7263;49.418;11.064;2023-04-12T07:50:38;6.80;99.90
14359;DHT22;7263;49.418;11.064;2023-04-12T07:53:19;6.90;99.90
14359;DHT22;7263;49.418;11.064;2023-04-12T07:55:49;6.90;99.90
14359;DHT22;7263;49.418;11.064;2023-04-12T07:58:16;6.90;99.90
14359;DHT22;7263;49.418;11.064;2023-04-12T08:00:55;6.90;99.90
14359;DHT22;7263;49.418;11.064;2023-04-12T08:03:25;7.00;99.90
14359;DHT22;7263;49.418;11.064;2023-04-12T08:05:56;7.10;99.90
14359;DHT22;7263;49.418;11.064;2023-04-12T08:08:23;7.10;99.90
14359;DHT22;7263;49.418;11.064;2023-04-12T08:10:50;7.10;99.90
14359;DHT22;7263;49.418;11.064;2023-04-12T08:13:26;7.20;99.90
14359;DHT22;7263;49.418;11.064;2023-04-12T08:15:56;7.30;99.90
14359;DHT22;7263;49.418;11.064;2023-04-12T08:18:32;7.40;99.90
14359;DHT22;7263;49.418;11.064;2023-04-12T08:21:00;7.50;99.90
14359;DHT22;7263;49.418;11.064;2023-04-12T08:23:29;7.60;99.90
14359;DHT22;7263;49.418;11.064;2023-04-12T08:25:58;7.60;99.90
14359;DHT22;7263;49.418;11.064;2023-04-12T08:28:30;7.70;99.90
14359;DHT22;7263;49.418;11.064;2023-04-12T08:30:58;7.70;99.90
14359;DHT22;7263;49.418;11.064;2023-04-12T08:33:25;7.80;99.90
14359;DHT22;7263;49.418;11.064;2023-04-12T08:35:54;7.80;99.90
14359;DHT22;7263;49.418;11.064;2023-04-12T08:38:31;7.90;99.90
14359;DHT22;7263;49.418;11.064;2023-04-12T08:41:08;7.90;99.90
14359;DHT22;7263;49.418;11.064;2023-04-12T08:43:40;8.00;99.90
14359;DHT22;7263;49.418;11.064;2023-04-12T08:46:08;8.00;99.90
14359;DHT22;7263;49.418;11.064;2023-04-12T08:48:40;7.90;99.90
14359;DHT22;7263;49.418;11.064;2023-04-12T08:51:11;7.90;99.90
14359;DHT22;7263;49.418;11.064;2023-04-12T08:53:43;7.90;99.90
14359;DHT22;7263;49.418;11.064;2023-04-12T08:56:11;7.80;99.90
14359;DHT22;7263;49.418;11.064;2023-04-12T08:58:44;7.80;99.90
14359;DHT22;7263;49.418;11.064;2023-04-12T09:01:14;7.70;99.90
14359;DHT22;7263;49.418;11.064;2023-04-12T09:03:42;7.70;99.90
14359;DHT22;7263;49.418;11.064;2023-04-12T09:06:13;7.70;99.90
14359;DHT22;7263;49.418;11.064;2023-04-12T09:08:56;7.70;99.90
14359;DHT22;7263;49.418;11.064;2023-04-12T09:11:30;7.80;99.90
14359;DHT22;7263;49.418;11.064;2023-04-12T09:14:00;7.80;99.90
14359;DHT22;7263;49.418;11.064;2023-04-12T09:16:37;7.80;99.90
14359;DHT22;7263;49.418;11.064;2023-04-12T09:19:04;7.70;99.90
14359;DHT22;7263;49.418;11.064;2023-04-12T09:21:31;7.70;99.90
14359;DHT22;7263;49.418;11.064;2023-04-12T09:24:03;7.70;99.90
14359;DHT22;7263;49.418;11.064;2023-04-12T09:26:34;7.70;99.90
14359;DHT22;7263;49.418;11.064;2023-04-12T09:29:03;7.70;99.90
14359;DHT22;7263;49.418;11.064;2023-04-12T09:31:30;7.70;99.90
14359;DHT22;7263;49.418;11.064;2023-04-12T09:34:06;7.70;99.90
14359;DHT22;7263;49.418;11.064;2023-04-12T09:36:40;7.60;99.90
14359;DHT22;7263;49.418;11.064;2023-04-12T09:39:08;7.50;99.90
14359;DHT22;7263;49.418;11.064;2023-04-12T09:41:43;7.60;99.90
14359;DHT22;7263;49.418;11.064;2023-04-12T09:44:26;7.50;99.90
14359;DHT22;7263;49.418;11.064;2023-04-12T09:47:10;7.50;99.90
14359;DHT22;7263;49.418;11.064;2023-04-12T09:49:42;7.50;99.90
14359;DHT22;7263;49.418;11.064;2023-04-12T09:52:13;7.50;99.90
14359;DHT22;7263;49.418;11.064;2023-04-12T09:54:46;7.60;99.90
14359;DHT22;7263;49.418;11.064;2023-04-12T09:57:17;7.60;99.90
14359;DHT22;7263;49.418;11.064;2023-04-12T09:59:48;7.60;99.90
14359;DHT22;7263;49.418;11.064;2023-04-12T10:02:16;7.50;99.90
14359;DHT22;7263;49.418;11.064;2023-04-12T10:04:46;7.50;99.90
14359;DHT22;7263;49.418;11.064;2023-04-12T10:07:18;7.50;99.90
14359;DHT22;7263;49.418;11.064;2023-04-12T10:10:04;7.60;99.90
14359;DHT22;7263;49.418;11.064;2023-04-12T10:12:35;7.60;99.90
14359;DHT22;7263;49.418;11.064;2023-04-12T10:15:08;7.60;99.90
14359;DHT22;7263;49.418;11.064;2023-04-12T10:17:43;7.60;99.90
14359;DHT22;7263;49.418;11.064;2023-04-12T10:20:13;7.70;99.90
14359;DHT22;7263;49.418;11.064;2023-04-12T10:22:41;7.90;99.90
14359;DHT22;7263;49.418;11.064;2023-04-12T10:25:16;8.00;99.90
14359;DHT22;7263;49.418;11.064;2023-04-12T10:27:47;8.20;99.90
14359;DHT22;7263;49.418;11.064;2023-04-12T10:30:24;7.50;99.90
14359;DHT22;7263;49.418;11.064;2023-04-12T10:33:13;8.10;99.90
14359;DHT22;7263;49.418;11.064;2023-04-12T10:35:57;8.10;99.90
14359;DHT22;7263;49.418;11.064;2023-04-12T10:38:27;8.10;99.90
14359;DHT22;7263;49.418;11.064;2023-04-12T10:41:21;8.10;99.90
14359;DHT22;7263;49.418;11.064;2023-04-12T10:43:50;8.00;99.90
14359;DHT22;7263;49.418;11.064;2023-04-12T10:46:51;8.00;99.90
14359;DHT22;7263;49.418;11.064;2023-04-12T10:49:18;8.10;99.90
14359;DHT22;7263;49.418;11.064;2023-04-12T10:52:12;8.10;99.90
14359;DHT22;7263;49.418;11.064;2023-04-12T10:54:42;8.20;99.90
14359;DHT22;7263;49.418;11.064;2023-04-12T10:57:42;8.40;99.90
14359;DHT22;7263;49.418;11.064;2023-04-12T11:00:13;8.60;99.90
14359;DHT22;7263;49.418;11.064;2023-04-12T11:03:07;8.70;99.90
14359;DHT22;7263;49.418;11.064;2023-04-12T11:06:03;8.80;99.90
14359;DHT22;7263;49.418;11.064;2023-04-12T11:08:31;8.70;99.90
14359;DHT22;7263;49.418;11.064;2023-04-12T11:11:02;8.80;99.90
14359;DHT22;7263;49.418;11.064;2023-04-12T11:13:34;8.90;99.90
14359;DHT22;7263;49.418;11.064;2023-04-12T11:16:02;9.10;99.90
14359;DHT22;7263;49.418;11.064;2023-04-12T11:18:29;8.80;99.90
14359;DHT22;7263;49.418;11.064;2023-04-12T11:21:01;8.90;99.90
14359;DHT22;7263;49.418;11.064;2023-04-12T11:23:32;8.90;99.90
14359;DHT22;7263;49.418;11.064;2023-04-12T11:26:18;9.00;99.90
14359;DHT22;7263;49.418;11.064;2023-04-12T11:28:54;8.90;99.90
14359;DHT22;7263;49.418;11.064;2023-04-12T11:31:29;8.80;99.90
14359;DHT22;7263;49.418;11.064;2023-04-12T11:33:58;8.80;99.90
14359;DHT22;7263;49.418;11.064;2023-04-12T11:36:30;8.80;99.90
14359;DHT22;7263;49.418;11.064;2023-04-12T11:39:00;8.80;99.90
14359;DHT22;7263;49.418;11.064;2023-04-12T11:41:26;8.70;99.90
14359;DHT22;7263;49.418;11.064;2023-04-12T11:43:57;8.70;99.90
14359;DHT22;7263;49.418;11.064;2023-04-12T11:46:24;8.80;99.90
14359;DHT22;7263;49.418;11.064;2023-04-12T11:48:55;8.80;99.90
14359;DHT22;7263;49.418;11.064;2023-04-12T11:51:22;8.90;99.90
14359;DHT22;7263;49.418;11.064;2023-04-12T11:53:52;8.90;99.90
14359;DHT22;7263;49.418;11.064;2023-04-12T11:56:20;8.90;99.90
14359;DHT22;7263;49.418;11.064;2023-04-12T11:58:56;9.00;99.90
14359;DHT22;7263;49.418;11.064;2023-04-12T12:01:23;9.10;99.90
14359;DHT22;7263;49.418;11.064;2023-04-12T12:03:55;9.10;99.90
14359;DHT22;7263;49.418;11.064;2023-04-12T12:06:25;9.10;99.90
14359;DHT22;7263;49.418;11.064;2023-04-12T12:08:55;9.10;99.90
14359;DHT22;7263;49.418;11.064;2023-04-12T12:11:27;9.20;99.90
14359;DHT22;7263;49.418;11.064;2023-04-12T12:13:58;9.30;99.90
14359;DHT22;7263;49.418;11.064;2023-04-12T12:16:27;9.30;99.90
14359;DHT22;7263;49.418;11.064;2023-04-12T12:18:56;9.40;99.90
14359;DHT22;7263;49.418;11.064;2023-04-12T12:21:31;9.40;99.90
14359;DHT22;7263;49.418;11.064;2023-04-12T12:23:58;9.50;99.90
14359;DHT22;7263;49.418;11.064;2023-04-12T12:26:30;9.50;99.90
14359;DHT22;7263;49.418;11.064;2023-04-12T12:29:01;9.50;99.90
14359;DHT22;7263;49.418;11.064;2023-04-12T12:31:36;9.50;99.90
14359;DHT22;7263;49.418;11.064;2023-04-12T12:34:12;9.50;99.90
14359;DHT22;7263;49.418;11.064;2023-04-12T12:36:41;9.50;99.90
14359;DHT22;7263;49.418;11.064;2023-04-12T12:39:11;11.70;99.90
14359;DHT22;7263;49.418;11.064;2023-04-12T12:41:39;9.60;99.90
14359;DHT22;7263;49.418;11.064;2023-04-12T12:44:07;9.70;99.90
14359;DHT22;7263;49.418;11.064;2023-04-12T12:46:41;9.70;99.90
14359;DHT22;7263;49.418;11.064;2023-04-12T12:49:17;9.70;99.90
14359;DHT22;7263;49.418;11.064;2023-04-12T12:51:53;9.80;99.90
14359;DHT22;7263;49.418;11.064;2023-04-12T12:54:19;9.70;99.90
14359;DHT22;7263;49.418;11.064;2023-04-12T12:56:52;9.70;99.90
14359;DHT22;7263;49.418;11.064;2023-04-12T12:59:22;9.70;99.90
14359;DHT22;7263;49.418;11.064;2023-04-12T13:01:52;9.90;99.90
14359;DHT22;7263;49.418;11.064;2023-04-12T13:04:21;9.90;99.90
14359;DHT22;7263;49.418;11.064;2023-04-12T13:06:48;9.90;99.90
14359;DHT22;7263;49.418;11.064;2023-04-12T13:09:14;9.90;99.90
14359;DHT22;7263;49.418;11.064;2023-04-12T13:11:44;9.90;99.90
14359;DHT22;7263;49.418;11.064;2023-04-12T13:14:11;10.00;99.90
14359;DHT22;7263;49.418;11.064;2023-04-12T13:16:41;10.10;99.90
14359;DHT22;7263;49.418;11.064;2023-04-12T13:19:10;10.20;99.90
14359;DHT22;7263;49.418;11.064;2023-04-12T13:21:40;10.30;99.90
14359;DHT22;7263;49.418;11.064;2023-04-12T13:24:12;10.30;99.90
14359;DHT22;7263;49.418;11.064;2023-04-12T13:26:39;10.40;99.90
14359;DHT22;7263;49.418;11.064;2023-04-12T13:29:12;10.30;99.90
14359;DHT22;7263;49.418;11.064;2023-04-12T13:31:38;10.40;99.90
14359;DHT22;7263;49.418;11.064;2023-04-12T13:34:18;10.30;99.90
14359;DHT22;7263;49.418;11.064;2023-04-12T13:37:02;10.30;99.90
14359;DHT22;7263;49.418;11.064;2023-04-12T13:39:32;10.30;99.90
14359;DHT22;7263;49.418;11.064;2023-04-12T13:42:01;10.30;99.90
14359;DHT22;7263;49.418;11.064;2023-04-12T13:44:28;10.40;99.90
14359;DHT22;7263;49.418;11.064;2023-04-12T13:47:02;10.70;99.90
14359;DHT22;7263;49.418;11.064;2023-04-12T13:49:35;10.70;99.90
14359;DHT22;7263;49.418;11.064;2023-04-12T13:52:01;10.90;99.90
14359;DHT22;7263;49.418;11.064;2023-04-12T13:54:28;11.10;99.90
14359;DHT22;7263;49.418;11.064;2023-04-12T13:56:58;11.10;99.90
14359;DHT22;7263;49.418;11.064;2023-04-12T13:59:42;11.10;99.90
14359;DHT22;7263;49.418;11.064;2023-04-12T14:02:08;11.40;99.90
14359;DHT22;7263;49.418;11.064;2023-04-12T14:07:47;11.10;99.90
14359;DHT22;7263;49.418;11.064;2023-04-12T14:10:21;11.20;99.90
14359;DHT22;7263;49.418;11.064;2023-04-12T14:12:59;11.30;99.90
14359;DHT22;7263;49.418;11.064;2023-04-12T14:15:34;11.30;99.90
14359;DHT22;7263;49.418;11.064;2023-04-12T14:18:05;11.40;99.90
14359;DHT22;7263;49.418;11.064;2023-04-12T14:20:44;11.40;99.90
14359;DHT22;7263;49.418;11.064;2023-04-12T14:23:13;11.40;99.90
14359;DHT22;7263;49.418;11.064;2023-04-12T14:25:40;11.50;99.90
14359;DHT22;7263;49.418;11.064;2023-04-12T14:31:09;11.60;99.90
14359;DHT22;7263;49.418;11.064;2023-04-12T14:33:41;11.80;99.90
14359;DHT22;7263;49.418;11.064;2023-04-12T14:36:15;11.80;99.90
14359;DHT22;7263;49.418;11.064;2023-04-12T14:38:42;11.60;99.90
14359;DHT22;7263;49.418;11.064;2023-04-12T14:41:19;11.60;99.90
14359;DHT22;7263;49.418;11.064;2023-04-12T14:43:45;11.70;99.90
14359;DHT22;7263;49.418;11.064;2023-04-12T14:46:12;11.80;99.90
14359;DHT22;7263;49.418;11.064;2023-04-12T14:48:39;12.00;99.90
14359;DHT22;7263;49.418;11.064;2023-04-12T14:51:11;12.10;99.90
14359;DHT22;7263;49.418;11.064;2023-04-12T14:53:41;12.30;99.90
14359;DHT22;7263;49.418;11.064;2023-04-12T14:56:18;12.30;99.90
14359;DHT22;7263;49.418;11.064;2023-04-12T14:58:46;12.50;99.90
14359;DHT22;7263;49.418;11.064;2023-04-12T15:01:19;12.60;99.90
14359;DHT22;7263;49.418;11.064;2023-04-12T15:03:45;12.70;99.90
14359;DHT22;7263;49.418;11.064;2023-04-12T15:06:13;12.80;99.90
14359;DHT22;7263;49.418;11.064;2023-04-12T15:08:40;12.80;99.90
14359;DHT22;7263;49.418;11.064;2023-04-12T15:11:17;12.80;99.90
14359;DHT22;7263;49.418;11.064;2023-04-12T15:13:46;12.80;99.90
14359;DHT22;7263;49.418;11.064;2023-04-12T15:16:14;12.80;99.90
14359;DHT22;7263;49.418;11.064;2023-04-12T15:18:41;12.90;99.90
14359;DHT22;7263;49.418;11.064;2023-04-12T15:21:08;12.90;99.90
14359;DHT22;7263;49.418;11.064;2023-04-12T15:23:40;13.00;99.90
14359;DHT22;7263;49.418;11.064;2023-04-12T15:26:12;13.10;99.90
14359;DHT22;7263;49.418;11.064;2023-04-12T15:28:41;13.10;99.90
14359;DHT22;7263;49.418;11.064;2023-04-12T15:31:13;13.10;99.90
14359;DHT22;7263;49.418;11.064;2023-04-12T15:33:43;13.20;99.90
14359;DHT22;7263;49.418;11.064;2023-04-12T15:36:11;13.20;99.90
14359;DHT22;7263;49.418;11.064;2023-04-12T15:38:45;13.30;99.90
14359;DHT22;7263;49.418;11.064;2023-04-12T15:41:14;13.30;99.90
14359;DHT22;7263;49.418;11.064;2023-04-12T15:43:45;13.30;99.90
14359;DHT22;7263;49.418;11.064;2023-04-12T15:46:16;13.30;99.90
14359;DHT22;7263;49.418;11.064;2023-04-12T15:48:45;13.30;99.90
14359;DHT22;7263;49.418;11.064;2023-04-12T15:51:12;13.20;99.90
14359;DHT22;7263;49.418;11.064;2023-04-12T15:53:39;13.20;99.90
14359;DHT22;7263;49.418;11.064;2023-04-12T15:56:16;13.30;99.90
14359;DHT22;7263;49.418;11.064;2023-04-12T15:58:46;13.30;99.90
14359;DHT22;7263;49.418;11.064;2023-04-12T16:01:14;10.90;99.90
14359;DHT22;7263;49.418;11.064;2023-04-12T16:03:43;13.20;99.90
14359;DHT22;7263;49.418;11.064;2023-04-12T16:06:19;13.20;99.90
14359;DHT22;7263;49.418;11.064;2023-04-12T16:08:48;13.20;99.90
14359;DHT22;7263;49.418;11.064;2023-04-12T16:11:18;13.20;99.90
14359;DHT22;7263;49.418;11.064;2023-04-12T16:13:54;13.20;99.90